sensor_id;sensor_type;location;lat;lon;timestamp;P1;durP1;ratioP1;P2;durP2;ratioP2
65757;SDS011;52495;52.208;5.158;2023-07-22T00:00:10;7.50;;;4.95;;
65757;SDS011;52495;52.208;5.158;2023-07-22T00:02:39;8.15;;;5.10;;
65757;SDS011;52495;52.208;5.158;2023-07-22T00:05:06;8.10;;;5.60;;
65757;SDS011;52495;52.208;5.158;2023-07-22T00:07:35;9.65;;;5.75;;
65757;SDS011;52495;52.208;5.158;2023-07-22T00:10:02;9.68;;;6.65;;
65757;SDS011;52495;52.208;5.158;2023-07-22T00:12:33;11.00;;;6.47;;
65757;SDS011;52495;52.208;5.158;2023-07-22T00:15:00;9.43;;;5.78;;
65757;SDS011;52495;52.208;5.158;2023-07-22T00:17:27;11.20;;;6.72;;
65757;SDS011;52495;52.208;5.158;2023-07-22T00:19:54;11.23;;;7.28;;
65757;SDS011;52495;52.208;5.158;2023-07-22T00:22:21;10.77;;;7.00;;
65757;SDS011;52495;52.208;5.158;2023-07-22T00:24:48;11.65;;;8.35;;
65757;SDS011;52495;52.208;5.158;2023-07-22T00:27:16;9.82;;;6.53;;
65757;SDS011;52495;52.208;5.158;2023-07-22T00:29:44;11.52;;;7.70;;
65757;SDS011;52495;52.208;5.158;2023-07-22T00:32:11;9.45;;;6.63;;
65757;SDS011;52495;52.208;5.158;2023-07-22T00:34:39;14.93;;;8.02;;
65757;SDS011;52495;52.208;5.158;2023-07-22T00:37:06;9.90;;;7.60;;
65757;SDS011;52495;52.208;5.158;2023-07-22T00:39:33;12.15;;;7.97;;
65757;SDS011;52495;52.208;5.158;2023-07-22T00:42:00;12.07;;;8.20;;
65757;SDS011;52495;52.208;5.158;2023-07-22T00:44:27;12.90;;;8.65;;
65757;SDS011;52495;52.208;5.158;2023-07-22T00:46:56;12.38;;;8.38;;
65757;SDS011;52495;52.208;5.158;2023-07-22T00:49:24;13.50;;;9.20;;
65757;SDS011;52495;52.208;5.158;2023-07-22T00:51:52;12.95;;;9.38;;
65757;SDS011;52495;52.208;5.158;2023-07-22T00:54:19;12.85;;;8.70;;
65757;SDS011;52495;52.208;5.158;2023-07-22T00:56:45;15.82;;;9.20;;
65757;SDS011;52495;52.208;5.158;2023-07-22T00:59:14;13.10;;;8.05;;
65757;SDS011;52495;52.208;5.158;2023-07-22T01:01:42;10.85;;;7.80;;
65757;SDS011;52495;52.208;5.158;2023-07-22T01:04:13;12.35;;;8.85;;
65757;SDS011;52495;52.208;5.158;2023-07-22T01:06:43;11.82;;;8.63;;
65757;SDS011;52495;52.208;5.158;2023-07-22T01:09:10;15.05;;;9.68;;
65757;SDS011;52495;52.208;5.158;2023-07-22T01:11:38;13.32;;;9.32;;
65757;SDS011;52495;52.208;5.158;2023-07-22T01:14:05;13.68;;;9.07;;
65757;SDS011;52495;52.208;5.158;2023-07-22T01:16:33;13.25;;;9.35;;
65757;SDS011;52495;52.208;5.158;2023-07-22T01:19:00;14.55;;;9.30;;
65757;SDS011;52495;52.208;5.158;2023-07-22T01:21:31;15.57;;;9.52;;
65757;SDS011;52495;52.208;5.158;2023-07-22T01:24:01;14.95;;;9.52;;
65757;SDS011;52495;52.208;5.158;2023-07-22T01:26:28;14.50;;;9.25;;
65757;SDS011;52495;52.208;5.158;2023-07-22T01:29:01;14.43;;;10.30;;
65757;SDS011;52495;52.208;5.158;2023-07-22T01:31:29;14.52;;;10.10;;
65757;SDS011;52495;52.208;5.158;2023-07-22T01:33:57;13.70;;;9.10;;
65757;SDS011;52495;52.208;5.158;2023-07-22T01:36:24;15.45;;;10.13;;
65757;SDS011;52495;52.208;5.158;2023-07-22T01:38:51;15.80;;;10.60;;
65757;SDS011;52495;52.208;5.158;2023-07-22T01:41:20;13.63;;;9.50;;
65757;SDS011;52495;52.208;5.158;2023-07-22T01:43:47;15.10;;;9.63;;
65757;SDS011;52495;52.208;5.158;2023-07-22T01:46:14;15.95;;;10.45;;
65757;SDS011;52495;52.208;5.158;2023-07-22T01:48:41;17.13;;;11.32;;
65757;SDS011;52495;52.208;5.158;2023-07-22T01:51:08;16.63;;;10.27;;
65757;SDS011;52495;52.208;5.158;2023-07-22T01:53:36;15.90;;;9.80;;
65757;SDS011;52495;52.208;5.158;2023-07-22T01:56:03;14.65;;;10.52;;
65757;SDS011;52495;52.208;5.158;2023-07-22T01:58:32;16.00;;;10.68;;
65757;SDS011;52495;52.208;5.158;2023-07-22T02:00:59;16.02;;;9.93;;
65757;SDS011;52495;52.208;5.158;2023-07-22T02:03:27;15.10;;;10.23;;
65757;SDS011;52495;52.208;5.158;2023-07-22T02:06:00;16.73;;;10.50;;
65757;SDS011;52495;52.208;5.158;2023-07-22T02:08:28;15.23;;;10.20;;
65757;SDS011;52495;52.208;5.158;2023-07-22T02:10:58;16.38;;;11.18;;
65757;SDS011;52495;52.208;5.158;2023-07-22T02:13:27;18.17;;;11.43;;
65757;SDS011;52495;52.208;5.158;2023-07-22T02:15:55;15.32;;;10.00;;
65757;SDS011;52495;52.208;5.158;2023-07-22T02:18:24;15.32;;;10.07;;
65757;SDS011;52495;52.208;5.158;2023-07-22T02:20:51;17.02;;;10.95;;
65757;SDS011;52495;52.208;5.158;2023-07-22T02:23:18;17.15;;;11.45;;
65757;SDS011;52495;52.208;5.158;2023-07-22T02:25:48;16.67;;;10.63;;
65757;SDS011;52495;52.208;5.158;2023-07-22T02:28:15;16.10;;;10.73;;
65757;SDS011;52495;52.208;5.158;2023-07-22T02:30:46;16.67;;;10.85;;
65757;SDS011;52495;52.208;5.158;2023-07-22T02:33:15;16.83;;;11.23;;
65757;SDS011;52495;52.208;5.158;2023-07-22T02:35:42;17.63;;;11.65;;
65757;SDS011;52495;52.208;5.158;2023-07-22T02:38:09;19.02;;;12.32;;
65757;SDS011;52495;52.208;5.158;2023-07-22T02:40:36;17.45;;;11.90;;
65757;SDS011;52495;52.208;5.158;2023-07-22T02:43:03;21.08;;;13.10;;
65757;SDS011;52495;52.208;5.158;2023-07-22T02:45:32;16.45;;;11.85;;
65757;SDS011;52495;52.208;5.158;2023-07-22T02:47:59;18.85;;;11.85;;
65757;SDS011;52495;52.208;5.158;2023-07-22T02:50:27;18.23;;;11.27;;
65757;SDS011;52495;52.208;5.158;2023-07-22T02:52:54;17.85;;;11.38;;
65757;SDS011;52495;52.208;5.158;2023-07-22T02:55:21;18.33;;;12.13;;
65757;SDS011;52495;52.208;5.158;2023-07-22T02:57:52;18.67;;;11.48;;
65757;SDS011;52495;52.208;5.158;2023-07-22T03:00:19;18.33;;;11.38;;
65757;SDS011;52495;52.208;5.158;2023-07-22T03:02:49;19.05;;;11.73;;
65757;SDS011;52495;52.208;5.158;2023-07-22T03:05:17;19.17;;;11.45;;
65757;SDS011;52495;52.208;5.158;2023-07-22T03:07:46;16.52;;;12.30;;
65757;SDS011;52495;52.208;5.158;2023-07-22T03:10:13;17.60;;;11.35;;
65757;SDS011;52495;52.208;5.158;2023-07-22T03:12:41;18.75;;;12.18;;
65757;SDS011;52495;52.208;5.158;2023-07-22T03:15:08;17.17;;;10.98;;
65757;SDS011;52495;52.208;5.158;2023-07-22T03:17:38;16.92;;;11.30;;
65757;SDS011;52495;52.208;5.158;2023-07-22T03:20:07;19.42;;;12.27;;
65757;SDS011;52495;52.208;5.158;2023-07-22T03:22:39;19.38;;;11.27;;
65757;SDS011;52495;52.208;5.158;2023-07-22T03:25:08;17.08;;;11.52;;
65757;SDS011;52495;52.208;5.158;2023-07-22T03:27:37;19.55;;;11.52;;
65757;SDS011;52495;52.208;5.158;2023-07-22T03:30:04;18.05;;;12.10;;
65757;SDS011;52495;52.208;5.158;2023-07-22T03:32:33;18.38;;;11.90;;
65757;SDS011;52495;52.208;5.158;2023-07-22T03:35:00;18.77;;;11.00;;
65757;SDS011;52495;52.208;5.158;2023-07-22T03:37:28;18.80;;;11.80;;
65757;SDS011;52495;52.208;5.158;2023-07-22T03:39:55;17.73;;;11.95;;
65757;SDS011;52495;52.208;5.158;2023-07-22T03:42:25;16.10;;;10.82;;
65757;SDS011;52495;52.208;5.158;2023-07-22T03:44:51;16.33;;;10.98;;
65757;SDS011;52495;52.208;5.158;2023-07-22T03:47:19;16.58;;;11.25;;
65757;SDS011;52495;52.208;5.158;2023-07-22T03:49:46;18.45;;;10.85;;
65757;SDS011;52495;52.208;5.158;2023-07-22T03:52:13;19.00;;;11.52;;
65757;SDS011;52495;52.208;5.158;2023-07-22T03:54:43;15.95;;;11.35;;
65757;SDS011;52495;52.208;5.158;2023-07-22T03:57:10;16.90;;;11.32;;
65757;SDS011;52495;52.208;5.158;2023-07-22T03:59:38;17.13;;;11.00;;
65757;SDS011;52495;52.208;5.158;2023-07-22T04:02:05;16.38;;;9.80;;
65757;SDS011;52495;52.208;5.158;2023-07-22T04:04:33;17.55;;;10.88;;
65757;SDS011;52495;52.208;5.158;2023-07-22T04:07:00;15.77;;;10.23;;
65757;SDS011;52495;52.208;5.158;2023-07-22T04:09:27;18.13;;;9.52;;
65757;SDS011;52495;52.208;5.158;2023-07-22T04:11:54;15.23;;;10.20;;
65757;SDS011;52495;52.208;5.158;2023-07-22T04:14:21;17.15;;;10.23;;
65757;SDS011;52495;52.208;5.158;2023-07-22T04:16:51;15.98;;;9.13;;
65757;SDS011;52495;52.208;5.158;2023-07-22T04:19:18;16.90;;;9.57;;
65757;SDS011;52495;52.208;5.158;2023-07-22T04:21:45;15.52;;;9.35;;
65757;SDS011;52495;52.208;5.158;2023-07-22T04:24:12;13.48;;;9.02;;
65757;SDS011;52495;52.208;5.158;2023-07-22T04:26:40;12.00;;;8.20;;
65757;SDS011;52495;52.208;5.158;2023-07-22T04:29:08;13.52;;;9.00;;
65757;SDS011;52495;52.208;5.158;2023-07-22T04:31:37;12.93;;;8.23;;
65757;SDS011;52495;52.208;5.158;2023-07-22T04:34:06;13.90;;;8.75;;
65757;SDS011;52495;52.208;5.158;2023-07-22T04:36:33;14.68;;;8.57;;
65757;SDS011;52495;52.208;5.158;2023-07-22T04:39:00;14.80;;;8.13;;
65757;SDS011;52495;52.208;5.158;2023-07-22T04:41:30;10.63;;;7.07;;
65757;SDS011;52495;52.208;5.158;2023-07-22T04:43:57;12.15;;;7.60;;
65757;SDS011;52495;52.208;5.158;2023-07-22T04:46:24;14.00;;;8.02;;
65757;SDS011;52495;52.208;5.158;2023-07-22T04:48:53;12.32;;;7.15;;
65757;SDS011;52495;52.208;5.158;2023-07-22T04:51:21;9.75;;;7.18;;
65757;SDS011;52495;52.208;5.158;2023-07-22T04:53:48;13.35;;;7.70;;
65757;SDS011;52495;52.208;5.158;2023-07-22T04:56:15;10.73;;;7.18;;
65757;SDS011;52495;52.208;5.158;2023-07-22T04:58:42;10.77;;;7.18;;
65757;SDS011;52495;52.208;5.158;2023-07-22T05:01:10;10.60;;;7.18;;
65757;SDS011;52495;52.208;5.158;2023-07-22T05:03:37;11.35;;;7.32;;
65757;SDS011;52495;52.208;5.158;2023-07-22T05:06:05;10.23;;;6.80;;
65757;SDS011;52495;52.208;5.158;2023-07-22T05:08:35;10.20;;;6.85;;
65757;SDS011;52495;52.208;5.158;2023-07-22T05:11:03;10.38;;;7.38;;
65757;SDS011;52495;52.208;5.158;2023-07-22T05:13:30;11.68;;;7.60;;
65757;SDS011;52495;52.208;5.158;2023-07-22T05:15:57;10.77;;;7.15;;
65757;SDS011;52495;52.208;5.158;2023-07-22T05:18:24;12.50;;;8.07;;
65757;SDS011;52495;52.208;5.158;2023-07-22T05:20:51;15.75;;;8.15;;
65757;SDS011;52495;52.208;5.158;2023-07-22T05:23:18;13.05;;;7.80;;
65757;SDS011;52495;52.208;5.158;2023-07-22T05:25:51;13.10;;;7.93;;
65757;SDS011;52495;52.208;5.158;2023-07-22T05:28:18;15.32;;;8.63;;
65757;SDS011;52495;52.208;5.158;2023-07-22T05:30:46;13.63;;;8.80;;
65757;SDS011;52495;52.208;5.158;2023-07-22T05:33:13;13.77;;;8.90;;
65757;SDS011;52495;52.208;5.158;2023-07-22T05:35:40;16.45;;;8.93;;
65757;SDS011;52495;52.208;5.158;2023-07-22T05:38:07;20.27;;;9.70;;
65757;SDS011;52495;52.208;5.158;2023-07-22T05:40:34;16.40;;;9.68;;
65757;SDS011;52495;52.208;5.158;2023-07-22T05:43:02;16.65;;;9.52;;
65757;SDS011;52495;52.208;5.158;2023-07-22T05:45:30;16.98;;;10.30;;
65757;SDS011;52495;52.208;5.158;2023-07-22T05:47:57;19.13;;;9.85;;
65757;SDS011;52495;52.208;5.158;2023-07-22T05:50:23;19.90;;;11.27;;
65757;SDS011;52495;52.208;5.158;2023-07-22T05:52:50;19.23;;;10.32;;
65757;SDS011;52495;52.208;5.158;2023-07-22T05:55:17;15.25;;;9.93;;
65757;SDS011;52495;52.208;5.158;2023-07-22T05:57:45;19.17;;;10.80;;
65757;SDS011;52495;52.208;5.158;2023-07-22T06:00:14;16.58;;;10.48;;
65757;SDS011;52495;52.208;5.158;2023-07-22T06:02:42;17.42;;;11.15;;
65757;SDS011;52495;52.208;5.158;2023-07-22T06:05:09;20.65;;;10.93;;
65757;SDS011;52495;52.208;5.158;2023-07-22T06:07:37;18.55;;;11.20;;
65757;SDS011;52495;52.208;5.158;2023-07-22T06:10:04;22.52;;;11.10;;
65757;SDS011;52495;52.208;5.158;2023-07-22T06:12:33;18.77;;;12.07;;
65757;SDS011;52495;52.208;5.158;2023-07-22T06:15:00;21.48;;;12.55;;
65757;SDS011;52495;52.208;5.158;2023-07-22T06:17:30;19.48;;;11.75;;
65757;SDS011;52495;52.208;5.158;2023-07-22T06:19:57;23.90;;;12.45;;
65757;SDS011;52495;52.208;5.158;2023-07-22T06:22:24;18.25;;;11.70;;
65757;SDS011;52495;52.208;5.158;2023-07-22T06:24:53;22.50;;;13.73;;
65757;SDS011;52495;52.208;5.158;2023-07-22T06:27:20;22.45;;;13.18;;
65757;SDS011;52495;52.208;5.158;2023-07-22T06:29:48;22.05;;;12.77;;
65757;SDS011;52495;52.208;5.158;2023-07-22T06:32:15;23.83;;;12.93;;
65757;SDS011;52495;52.208;5.158;2023-07-22T06:34:45;25.33;;;14.73;;
65757;SDS011;52495;52.208;5.158;2023-07-22T06:37:12;22.70;;;14.15;;
65757;SDS011;52495;52.208;5.158;2023-07-22T06:39:40;26.17;;;13.13;;
65757;SDS011;52495;52.208;5.158;2023-07-22T06:42:07;24.52;;;14.63;;
65757;SDS011;52495;52.208;5.158;2023-07-22T06:44:34;23.55;;;13.13;;
65757;SDS011;52495;52.208;5.158;2023-07-22T06:47:01;23.30;;;13.35;;
65757;SDS011;52495;52.208;5.158;2023-07-22T06:49:28;25.98;;;13.45;;
65757;SDS011;52495;52.208;5.158;2023-07-22T06:51:57;24.95;;;12.68;;
65757;SDS011;52495;52.208;5.158;2023-07-22T06:54:25;22.55;;;13.43;;
65757;SDS011;52495;52.208;5.158;2023-07-22T06:56:52;21.50;;;13.10;;
65757;SDS011;52495;52.208;5.158;2023-07-22T06:59:20;18.10;;;12.73;;
65757;SDS011;52495;52.208;5.158;2023-07-22T07:01:47;23.23;;;13.25;;
65757;SDS011;52495;52.208;5.158;2023-07-22T07:04:14;23.52;;;13.85;;
65757;SDS011;52495;52.208;5.158;2023-07-22T07:06:41;20.95;;;13.20;;
65757;SDS011;52495;52.208;5.158;2023-07-22T07:09:13;20.48;;;13.23;;
65757;SDS011;52495;52.208;5.158;2023-07-22T07:11:40;23.92;;;13.02;;
65757;SDS011;52495;52.208;5.158;2023-07-22T07:14:07;25.20;;;13.60;;
65757;SDS011;52495;52.208;5.158;2023-07-22T07:16:34;20.60;;;12.40;;
65757;SDS011;52495;52.208;5.158;2023-07-22T07:19:01;18.63;;;11.82;;
65757;SDS011;52495;52.208;5.158;2023-07-22T07:21:29;22.17;;;13.32;;
65757;SDS011;52495;52.208;5.158;2023-07-22T07:23:56;17.95;;;12.88;;
65757;SDS011;52495;52.208;5.158;2023-07-22T07:26:25;20.45;;;12.63;;
65757;SDS011;52495;52.208;5.158;2023-07-22T07:28:53;19.00;;;11.88;;
65757;SDS011;52495;52.208;5.158;2023-07-22T07:31:20;20.70;;;12.95;;
65757;SDS011;52495;52.208;5.158;2023-07-22T07:33:47;21.35;;;12.00;;
65757;SDS011;52495;52.208;5.158;2023-07-22T07:36:14;18.00;;;11.55;;
65757;SDS011;52495;52.208;5.158;2023-07-22T07:39:04;19.92;;;12.63;;
65757;SDS011;52495;52.208;5.158;2023-07-22T07:41:32;20.95;;;12.43;;
65757;SDS011;52495;52.208;5.158;2023-07-22T07:44:00;22.20;;;12.85;;
65757;SDS011;52495;52.208;5.158;2023-07-22T07:46:28;16.77;;;10.60;;
65757;SDS011;52495;52.208;5.158;2023-07-22T07:48:55;24.80;;;12.43;;
65757;SDS011;52495;52.208;5.158;2023-07-22T07:51:24;17.35;;;11.73;;
65757;SDS011;52495;52.208;5.158;2023-07-22T07:53:52;16.98;;;11.35;;
65757;SDS011;52495;52.208;5.158;2023-07-22T07:56:20;19.25;;;11.52;;
65757;SDS011;52495;52.208;5.158;2023-07-22T07:58:49;18.20;;;12.05;;
65757;SDS011;52495;52.208;5.158;2023-07-22T08:01:16;17.75;;;10.73;;
65757;SDS011;52495;52.208;5.158;2023-07-22T08:03:43;15.80;;;10.45;;
65757;SDS011;52495;52.208;5.158;2023-07-22T08:06:11;16.98;;;10.85;;
65757;SDS011;52495;52.208;5.158;2023-07-22T08:08:39;18.98;;;10.90;;
65757;SDS011;52495;52.208;5.158;2023-07-22T08:11:07;15.63;;;11.57;;
65757;SDS011;52495;52.208;5.158;2023-07-22T08:13:35;16.27;;;11.32;;
65757;SDS011;52495;52.208;5.158;2023-07-22T08:16:04;18.50;;;10.82;;
65757;SDS011;52495;52.208;5.158;2023-07-22T08:18:33;20.73;;;10.68;;
65757;SDS011;52495;52.208;5.158;2023-07-22T08:21:02;18.40;;;10.48;;
65757;SDS011;52495;52.208;5.158;2023-07-22T08:23:30;17.40;;;11.55;;
65757;SDS011;52495;52.208;5.158;2023-07-22T08:26:00;16.63;;;10.77;;
65757;SDS011;52495;52.208;5.158;2023-07-22T08:28:29;16.60;;;9.75;;
65757;SDS011;52495;52.208;5.158;2023-07-22T08:30:56;12.93;;;9.15;;
65757;SDS011;52495;52.208;5.158;2023-07-22T08:33:27;16.70;;;10.80;;
65757;SDS011;52495;52.208;5.158;2023-07-22T08:35:54;18.23;;;10.95;;
65757;SDS011;52495;52.208;5.158;2023-07-22T08:38:22;21.20;;;10.48;;
65757;SDS011;52495;52.208;5.158;2023-07-22T08:40:49;14.70;;;11.15;;
65757;SDS011;52495;52.208;5.158;2023-07-22T08:43:19;17.52;;;9.90;;
65757;SDS011;52495;52.208;5.158;2023-07-22T08:45:47;15.25;;;11.23;;
65757;SDS011;52495;52.208;5.158;2023-07-22T08:48:16;18.30;;;12.32;;
65757;SDS011;52495;52.208;5.158;2023-07-22T08:50:46;15.25;;;10.70;;
65757;SDS011;52495;52.208;5.158;2023-07-22T08:53:18;20.13;;;11.30;;
65757;SDS011;52495;52.208;5.158;2023-07-22T08:55:46;18.98;;;11.00;;
65757;SDS011;52495;52.208;5.158;2023-07-22T08:58:14;18.88;;;12.45;;
65757;SDS011;52495;52.208;5.158;2023-07-22T09:00:41;15.80;;;10.35;;
65757;SDS011;52495;52.208;5.158;2023-07-22T09:03:09;16.80;;;10.85;;
65757;SDS011;52495;52.208;5.158;2023-07-22T09:05:37;16.40;;;10.77;;
65757;SDS011;52495;52.208;5.158;2023-07-22T09:08:07;15.23;;;11.02;;
65757;SDS011;52495;52.208;5.158;2023-07-22T09:10:35;13.15;;;9.65;;
65757;SDS011;52495;52.208;5.158;2023-07-22T09:13:03;11.13;;;8.88;;
65757;SDS011;52495;52.208;5.158;2023-07-22T09:15:31;13.00;;;9.80;;
65757;SDS011;52495;52.208;5.158;2023-07-22T09:18:01;11.85;;;10.27;;
65757;SDS011;52495;52.208;5.158;2023-07-22T09:20:28;13.85;;;9.90;;
65757;SDS011;52495;52.208;5.158;2023-07-22T09:22:56;14.38;;;8.70;;
65757;SDS011;52495;52.208;5.158;2023-07-22T09:25:25;14.02;;;9.18;;
65757;SDS011;52495;52.208;5.158;2023-07-22T09:27:54;11.85;;;8.43;;
65757;SDS011;52495;52.208;5.158;2023-07-22T09:30:23;12.05;;;7.70;;
65757;SDS011;52495;52.208;5.158;2023-07-22T09:32:51;11.68;;;8.23;;
65757;SDS011;52495;52.208;5.158;2023-07-22T09:35:19;10.48;;;7.07;;
65757;SDS011;52495;52.208;5.158;2023-07-22T09:37:46;13.02;;;7.30;;
65757;SDS011;52495;52.208;5.158;2023-07-22T09:40:14;9.93;;;6.43;;
65757;SDS011;52495;52.208;5.158;2023-07-22T09:42:45;9.25;;;6.63;;
65757;SDS011;52495;52.208;5.158;2023-07-22T09:45:13;9.35;;;5.78;;
65757;SDS011;52495;52.208;5.158;2023-07-22T09:47:40;6.80;;;4.80;;
65757;SDS011;52495;52.208;5.158;2023-07-22T09:50:10;7.45;;;4.80;;
65757;SDS011;52495;52.208;5.158;2023-07-22T09:52:42;10.45;;;5.65;;
65757;SDS011;52495;52.208;5.158;2023-07-22T09:57:38;7.47;;;4.68;;
65757;SDS011;52495;52.208;5.158;2023-07-22T10:00:12;6.93;;;4.68;;
65757;SDS011;52495;52.208;5.158;2023-07-22T10:02:41;10.82;;;5.47;;
65757;SDS011;52495;52.208;5.158;2023-07-22T10:05:11;8.13;;;4.63;;
65757;SDS011;52495;52.208;5.158;2023-07-22T10:07:42;9.23;;;5.45;;
65757;SDS011;52495;52.208;5.158;2023-07-22T10:10:12;9.02;;;4.97;;
65757;SDS011;52495;52.208;5.158;2023-07-22T10:12:40;11.63;;;5.93;;
65757;SDS011;52495;52.208;5.158;2023-07-22T10:15:09;9.25;;;5.93;;
65757;SDS011;52495;52.208;5.158;2023-07-22T10:17:38;10.52;;;4.97;;
65757;SDS011;52495;52.208;5.158;2023-07-22T10:20:07;9.20;;;5.07;;
65757;SDS011;52495;52.208;5.158;2023-07-22T10:22:37;8.45;;;4.40;;
65757;SDS011;52495;52.208;5.158;2023-07-22T10:25:05;8.63;;;5.38;;
65757;SDS011;52495;52.208;5.158;2023-07-22T10:27:34;11.82;;;5.60;;
65757;SDS011;52495;52.208;5.158;2023-07-22T10:30:05;8.98;;;4.32;;
65757;SDS011;52495;52.208;5.158;2023-07-22T10:32:39;9.48;;;5.22;;
65757;SDS011;52495;52.208;5.158;2023-07-22T10:35:08;7.50;;;3.60;;
65757;SDS011;52495;52.208;5.158;2023-07-22T10:37:36;7.13;;;3.88;;
65757;SDS011;52495;52.208;5.158;2023-07-22T10:40:19;5.97;;;3.92;;
65757;SDS011;52495;52.208;5.158;2023-07-22T10:43:02;9.63;;;4.18;;
65757;SDS011;52495;52.208;5.158;2023-07-22T10:45:31;6.55;;;4.32;;
65757;SDS011;52495;52.208;5.158;2023-07-22T10:48:05;5.43;;;3.67;;
65757;SDS011;52495;52.208;5.158;2023-07-22T10:50:40;11.93;;;5.68;;
65757;SDS011;52495;52.208;5.158;2023-07-22T10:53:11;10.85;;;5.68;;
65757;SDS011;52495;52.208;5.158;2023-07-22T10:58:59;6.93;;;3.50;;
65757;SDS011;52495;52.208;5.158;2023-07-22T11:01:35;5.93;;;3.50;;
65757;SDS011;52495;52.208;5.158;2023-07-22T11:04:07;8.48;;;4.38;;
65757;SDS011;52495;52.208;5.158;2023-07-22T11:06:57;9.88;;;4.78;;
65757;SDS011;52495;52.208;5.158;2023-07-22T11:09:35;9.98;;;5.00;;
65757;SDS011;52495;52.208;5.158;2023-07-22T11:12:04;11.15;;;5.68;;
65757;SDS011;52495;52.208;5.158;2023-07-22T11:14:32;7.60;;;3.90;;
65757;SDS011;52495;52.208;5.158;2023-07-22T11:17:01;7.00;;;3.60;;
65757;SDS011;52495;52.208;5.158;2023-07-22T11:19:32;6.57;;;4.60;;
65757;SDS011;52495;52.208;5.158;2023-07-22T11:21:59;7.10;;;4.05;;
65757;SDS011;52495;52.208;5.158;2023-07-22T11:24:26;8.38;;;4.43;;
65757;SDS011;52495;52.208;5.158;2023-07-22T11:26:54;7.40;;;3.53;;
65757;SDS011;52495;52.208;5.158;2023-07-22T11:29:21;7.90;;;4.22;;
65757;SDS011;52495;52.208;5.158;2023-07-22T11:31:49;7.60;;;4.38;;
65757;SDS011;52495;52.208;5.158;2023-07-22T11:34:17;6.30;;;3.55;;
65757;SDS011;52495;52.208;5.158;2023-07-22T11:36:47;6.15;;;3.90;;
65757;SDS011;52495;52.208;5.158;2023-07-22T11:39:16;9.10;;;4.18;;
65757;SDS011;52495;52.208;5.158;2023-07-22T11:41:45;6.07;;;3.88;;
65757;SDS011;52495;52.208;5.158;2023-07-22T11:44:13;6.32;;;3.85;;
65757;SDS011;52495;52.208;5.158;2023-07-22T11:46:47;7.65;;;4.18;;
65757;SDS011;52495;52.208;5.158;2023-07-22T11:49:21;8.07;;;4.05;;
65757;SDS011;52495;52.208;5.158;2023-07-22T11:51:51;8.45;;;3.95;;
65757;SDS011;52495;52.208;5.158;2023-07-22T11:54:20;6.75;;;4.35;;
65757;SDS011;52495;52.208;5.158;2023-07-22T11:56:47;6.57;;;3.67;;
65757;SDS011;52495;52.208;5.158;2023-07-22T11:59:14;5.53;;;3.90;;
65757;SDS011;52495;52.208;5.158;2023-07-22T12:01:45;7.35;;;4.00;;
65757;SDS011;52495;52.208;5.158;2023-07-22T12:04:12;9.07;;;3.40;;
65757;SDS011;52495;52.208;5.158;2023-07-22T12:06:41;5.35;;;3.45;;
65757;SDS011;52495;52.208;5.158;2023-07-22T12:09:10;7.10;;;3.50;;
65757;SDS011;52495;52.208;5.158;2023-07-22T12:11:38;6.85;;;3.45;;
65757;SDS011;52495;52.208;5.158;2023-07-22T12:14:08;7.25;;;3.67;;
65757;SDS011;52495;52.208;5.158;2023-07-22T12:16:37;6.63;;;3.10;;
65757;SDS011;52495;52.208;5.158;2023-07-22T12:19:05;5.57;;;2.97;;
65757;SDS011;52495;52.208;5.158;2023-07-22T12:21:33;5.63;;;2.72;;
65757;SDS011;52495;52.208;5.158;2023-07-22T12:24:00;6.38;;;2.63;;
65757;SDS011;52495;52.208;5.158;2023-07-22T12:26:29;4.03;;;2.75;;
65757;SDS011;52495;52.208;5.158;2023-07-22T12:28:56;6.30;;;3.22;;
65757;SDS011;52495;52.208;5.158;2023-07-22T12:31:24;6.65;;;2.40;;
65757;SDS011;52495;52.208;5.158;2023-07-22T12:33:51;6.07;;;2.42;;
65757;SDS011;52495;52.208;5.158;2023-07-22T12:36:18;6.18;;;2.60;;
65757;SDS011;52495;52.208;5.158;2023-07-22T12:38:45;5.40;;;2.63;;
65757;SDS011;52495;52.208;5.158;2023-07-22T12:41:12;6.53;;;2.75;;
65757;SDS011;52495;52.208;5.158;2023-07-22T12:43:40;4.43;;;2.38;;
65757;SDS011;52495;52.208;5.158;2023-07-22T12:46:09;5.53;;;2.30;;
65757;SDS011;52495;52.208;5.158;2023-07-22T12:48:37;3.25;;;2.15;;
65757;SDS011;52495;52.208;5.158;2023-07-22T12:51:04;5.32;;;2.20;;
65757;SDS011;52495;52.208;5.158;2023-07-22T12:53:31;4.65;;;1.85;;
65757;SDS011;52495;52.208;5.158;2023-07-22T12:55:59;3.30;;;2.05;;
65757;SDS011;52495;52.208;5.158;2023-07-22T12:58:28;6.65;;;2.13;;
65757;SDS011;52495;52.208;5.158;2023-07-22T13:00:56;5.45;;;1.75;;
65757;SDS011;52495;52.208;5.158;2023-07-22T13:03:23;3.65;;;2.20;;
65757;SDS011;52495;52.208;5.158;2023-07-22T13:05:50;4.28;;;1.90;;
65757;SDS011;52495;52.208;5.158;2023-07-22T13:08:17;4.90;;;2.10;;
65757;SDS011;52495;52.208;5.158;2023-07-22T13:10:45;4.13;;;1.85;;
65757;SDS011;52495;52.208;5.158;2023-07-22T13:13:12;3.22;;;2.00;;
65757;SDS011;52495;52.208;5.158;2023-07-22T13:15:39;6.03;;;1.98;;
65757;SDS011;52495;52.208;5.158;2023-07-22T13:18:07;3.67;;;1.70;;
65757;SDS011;52495;52.208;5.158;2023-07-22T13:37:54;3.30;;;2.25;;
65757;SDS011;52495;52.208;5.158;2023-07-22T13:40:21;7.32;;;2.55;;
65757;SDS011;52495;52.208;5.158;2023-07-22T13:42:48;4.10;;;2.70;;
65757;SDS011;52495;52.208;5.158;2023-07-22T13:45:15;4.13;;;2.45;;
65757;SDS011;52495;52.208;5.158;2023-07-22T13:47:41;4.45;;;2.67;;
65757;SDS011;52495;52.208;5.158;2023-07-22T13:50:08;5.25;;;2.65;;
65757;SDS011;52495;52.208;5.158;2023-07-22T13:52:36;5.68;;;2.53;;
65757;SDS011;52495;52.208;5.158;2023-07-22T13:55:04;3.00;;;2.42;;
65757;SDS011;52495;52.208;5.158;2023-07-22T13:57:31;4.63;;;1.90;;
65757;SDS011;52495;52.208;5.158;2023-07-22T13:59:58;3.47;;;1.90;;
65757;SDS011;52495;52.208;5.158;2023-07-22T14:02:26;4.40;;;2.17;;
65757;SDS011;52495;52.208;5.158;2023-07-22T14:04:52;6.78;;;2.00;;
65757;SDS011;52495;52.208;5.158;2023-07-22T14:07:19;4.07;;;1.70;;
65757;SDS011;52495;52.208;5.158;2023-07-22T14:09:46;5.85;;;2.28;;
65757;SDS011;52495;52.208;5.158;2023-07-22T14:12:14;4.78;;;2.30;;
65757;SDS011;52495;52.208;5.158;2023-07-22T14:14:41;4.55;;;1.85;;
65757;SDS011;52495;52.208;5.158;2023-07-22T14:17:07;3.38;;;2.10;;
65757;SDS011;52495;52.208;5.158;2023-07-22T14:19:34;6.65;;;2.20;;
65757;SDS011;52495;52.208;5.158;2023-07-22T14:22:01;6.13;;;2.10;;
65757;SDS011;52495;52.208;5.158;2023-07-22T14:24:29;4.80;;;2.17;;
65757;SDS011;52495;52.208;5.158;2023-07-22T14:26:55;2.92;;;1.80;;
65757;SDS011;52495;52.208;5.158;2023-07-22T14:29:24;4.55;;;2.30;;
65757;SDS011;52495;52.208;5.158;2023-07-22T14:31:51;3.70;;;2.20;;
65757;SDS011;52495;52.208;5.158;2023-07-22T14:34:18;6.18;;;2.28;;
65757;SDS011;52495;52.208;5.158;2023-07-22T14:36:45;6.07;;;2.30;;
65757;SDS011;52495;52.208;5.158;2023-07-22T14:39:11;6.40;;;2.72;;
65757;SDS011;52495;52.208;5.158;2023-07-22T14:41:40;5.47;;;2.50;;
65757;SDS011;52495;52.208;5.158;2023-07-22T14:44:08;4.90;;;2.30;;
65757;SDS011;52495;52.208;5.158;2023-07-22T14:46:36;3.97;;;2.22;;
65757;SDS011;52495;52.208;5.158;2023-07-22T14:49:03;3.17;;;1.98;;
65757;SDS011;52495;52.208;5.158;2023-07-22T14:51:34;3.72;;;2.00;;
65757;SDS011;52495;52.208;5.158;2023-07-22T14:54:01;3.70;;;2.22;;
65757;SDS011;52495;52.208;5.158;2023-07-22T14:56:28;5.00;;;2.10;;
65757;SDS011;52495;52.208;5.158;2023-07-22T14:58:55;3.45;;;1.95;;
65757;SDS011;52495;52.208;5.158;2023-07-22T15:01:22;3.75;;;2.20;;